Leetonia, Minnesota
Current Conditions -  °F | °C
As of 12:53 PM on Thursday 23 Oct 2014 (Local Time) from KHIB Reporting Station
Overcast Overcast  
Wind Chill: 54°   Ceiling: 700
Heat Index: 54°   Visibility: 10mi
Dew Point: 49°   Wind: 7mph
Humidity: 83%   Direction: 180°S
Pressure: 29.94"   Gusts: NA
Location:  47.4158°N, 93.0053°W
Report Text: KHIB 231753Z AUTO 18006KT 10SM OVC007 12/09 A2994 RMK AO2 CIG 006V011 SLP144 T01220094 10122 20089 58003
Loading
Personal Weather Stations






























Interactive Weather Map
Tropical Storm Tracking
New forecast layout! Learn more

10-Day Weather Forecast

Advertisements
Track Severe Weather on mobile